sensor_id;sensor_type;location;lat;lon;timestamp;P1;durP1;ratioP1;P2;durP2;ratioP2
55617;SDS011;41492;49.804;9.952;2024-01-30T00:01:47;7.78;;;5.47;;
55617;SDS011;41492;49.804;9.952;2024-01-30T00:04:13;6.20;;;5.25;;
55617;SDS011;41492;49.804;9.952;2024-01-30T00:06:41;7.68;;;5.63;;
55617;SDS011;41492;49.804;9.952;2024-01-30T00:09:09;6.20;;;5.57;;
55617;SDS011;41492;49.804;9.952;2024-01-30T00:11:36;6.72;;;6.03;;
55617;SDS011;41492;49.804;9.952;2024-01-30T00:14:03;6.82;;;5.88;;
55617;SDS011;41492;49.804;9.952;2024-01-30T00:16:29;8.43;;;5.55;;
55617;SDS011;41492;49.804;9.952;2024-01-30T00:18:56;6.47;;;5.75;;
55617;SDS011;41492;49.804;9.952;2024-01-30T00:21:23;5.78;;;5.18;;
55617;SDS011;41492;49.804;9.952;2024-01-30T00:23:49;6.75;;;5.72;;
55617;SDS011;41492;49.804;9.952;2024-01-30T00:26:17;6.53;;;5.45;;
55617;SDS011;41492;49.804;9.952;2024-01-30T00:28:44;7.07;;;5.60;;
55617;SDS011;41492;49.804;9.952;2024-01-30T00:31:11;7.00;;;5.65;;
55617;SDS011;41492;49.804;9.952;2024-01-30T00:33:37;8.20;;;5.85;;
55617;SDS011;41492;49.804;9.952;2024-01-30T00:36:04;6.65;;;5.95;;
55617;SDS011;41492;49.804;9.952;2024-01-30T00:38:31;6.85;;;5.10;;
55617;SDS011;41492;49.804;9.952;2024-01-30T00:40:58;6.95;;;5.22;;
55617;SDS011;41492;49.804;9.952;2024-01-30T00:43:26;5.80;;;5.25;;
55617;SDS011;41492;49.804;9.952;2024-01-30T00:45:52;7.03;;;6.00;;
55617;SDS011;41492;49.804;9.952;2024-01-30T00:48:19;6.68;;;5.35;;
55617;SDS011;41492;49.804;9.952;2024-01-30T00:50:46;6.90;;;5.70;;
55617;SDS011;41492;49.804;9.952;2024-01-30T00:53:13;7.13;;;5.97;;
55617;SDS011;41492;49.804;9.952;2024-01-30T00:55:39;6.18;;;5.57;;
55617;SDS011;41492;49.804;9.952;2024-01-30T00:58:06;5.65;;;5.07;;
55617;SDS011;41492;49.804;9.952;2024-01-30T01:00:34;5.88;;;5.28;;
55617;SDS011;41492;49.804;9.952;2024-01-30T01:03:00;7.63;;;6.03;;
55617;SDS011;41492;49.804;9.952;2024-01-30T01:05:27;6.90;;;5.32;;
55617;SDS011;41492;49.804;9.952;2024-01-30T01:07:54;5.75;;;5.00;;
55617;SDS011;41492;49.804;9.952;2024-01-30T01:10:21;6.30;;;5.65;;
55617;SDS011;41492;49.804;9.952;2024-01-30T01:12:47;8.65;;;5.93;;
55617;SDS011;41492;49.804;9.952;2024-01-30T01:15:14;6.78;;;5.40;;
55617;SDS011;41492;49.804;9.952;2024-01-30T01:17:42;6.78;;;5.65;;
55617;SDS011;41492;49.804;9.952;2024-01-30T01:20:09;6.32;;;5.60;;
55617;SDS011;41492;49.804;9.952;2024-01-30T01:22:37;6.70;;;5.40;;
55617;SDS011;41492;49.804;9.952;2024-01-30T01:25:03;8.50;;;5.72;;
55617;SDS011;41492;49.804;9.952;2024-01-30T01:27:32;6.35;;;5.63;;
55617;SDS011;41492;49.804;9.952;2024-01-30T01:29:59;6.35;;;5.65;;
55617;SDS011;41492;49.804;9.952;2024-01-30T01:32:26;6.05;;;5.18;;
55617;SDS011;41492;49.804;9.952;2024-01-30T01:34:54;7.85;;;5.90;;
55617;SDS011;41492;49.804;9.952;2024-01-30T01:37:20;7.85;;;5.82;;
55617;SDS011;41492;49.804;9.952;2024-01-30T01:39:47;5.82;;;5.22;;
55617;SDS011;41492;49.804;9.952;2024-01-30T01:42:14;6.47;;;5.80;;
55617;SDS011;41492;49.804;9.952;2024-01-30T01:44:40;5.93;;;5.32;;
55617;SDS011;41492;49.804;9.952;2024-01-30T01:47:07;6.10;;;5.50;;
55617;SDS011;41492;49.804;9.952;2024-01-30T01:49:33;6.85;;;5.53;;
55617;SDS011;41492;49.804;9.952;2024-01-30T01:52:02;6.57;;;5.88;;
55617;SDS011;41492;49.804;9.952;2024-01-30T01:54:28;6.25;;;5.60;;
55617;SDS011;41492;49.804;9.952;2024-01-30T01:56:55;7.72;;;5.68;;
55617;SDS011;41492;49.804;9.952;2024-01-30T01:59:22;6.20;;;5.35;;
55617;SDS011;41492;49.804;9.952;2024-01-30T02:01:50;7.97;;;5.53;;
55617;SDS011;41492;49.804;9.952;2024-01-30T02:04:18;6.93;;;5.38;;
55617;SDS011;41492;49.804;9.952;2024-01-30T02:06:44;7.97;;;5.85;;
55617;SDS011;41492;49.804;9.952;2024-01-30T02:09:12;6.50;;;5.30;;
55617;SDS011;41492;49.804;9.952;2024-01-30T02:11:39;6.82;;;5.78;;
55617;SDS011;41492;49.804;9.952;2024-01-30T02:14:06;6.38;;;5.60;;
55617;SDS011;41492;49.804;9.952;2024-01-30T02:16:33;7.53;;;5.20;;
55617;SDS011;41492;49.804;9.952;2024-01-30T02:19:00;6.38;;;5.47;;
55617;SDS011;41492;49.804;9.952;2024-01-30T02:21:28;6.05;;;5.35;;
55617;SDS011;41492;49.804;9.952;2024-01-30T02:23:54;6.57;;;5.60;;
55617;SDS011;41492;49.804;9.952;2024-01-30T02:26:21;5.32;;;4.65;;
55617;SDS011;41492;49.804;9.952;2024-01-30T02:28:48;6.03;;;5.30;;
55617;SDS011;41492;49.804;9.952;2024-01-30T02:31:15;6.28;;;5.68;;
55617;SDS011;41492;49.804;9.952;2024-01-30T02:33:41;6.28;;;5.68;;
55617;SDS011;41492;49.804;9.952;2024-01-30T02:36:08;6.05;;;5.10;;
55617;SDS011;41492;49.804;9.952;2024-01-30T02:38:36;7.68;;;5.80;;
55617;SDS011;41492;49.804;9.952;2024-01-30T02:41:02;5.93;;;5.32;;
55617;SDS011;41492;49.804;9.952;2024-01-30T02:43:29;6.15;;;5.38;;
55617;SDS011;41492;49.804;9.952;2024-01-30T02:45:56;7.53;;;6.18;;
55617;SDS011;41492;49.804;9.952;2024-01-30T02:48:23;7.13;;;5.75;;
55617;SDS011;41492;49.804;9.952;2024-01-30T02:50:49;6.63;;;5.47;;
55617;SDS011;41492;49.804;9.952;2024-01-30T02:53:16;6.60;;;5.45;;
55617;SDS011;41492;49.804;9.952;2024-01-30T02:55:44;6.63;;;5.53;;
55617;SDS011;41492;49.804;9.952;2024-01-30T02:58:10;7.20;;;5.85;;
55617;SDS011;41492;49.804;9.952;2024-01-30T03:00:37;6.68;;;4.82;;
55617;SDS011;41492;49.804;9.952;2024-01-30T03:03:04;5.80;;;5.22;;
55617;SDS011;41492;49.804;9.952;2024-01-30T03:05:30;5.90;;;5.30;;
55617;SDS011;41492;49.804;9.952;2024-01-30T03:07:57;6.72;;;5.50;;
55617;SDS011;41492;49.804;9.952;2024-01-30T03:10:23;6.65;;;5.65;;
55617;SDS011;41492;49.804;9.952;2024-01-30T03:12:51;6.95;;;6.22;;
55617;SDS011;41492;49.804;9.952;2024-01-30T03:15:18;6.03;;;5.43;;
55617;SDS011;41492;49.804;9.952;2024-01-30T03:17:45;6.20;;;5.60;;
55617;SDS011;41492;49.804;9.952;2024-01-30T03:20:11;7.70;;;5.95;;
55617;SDS011;41492;49.804;9.952;2024-01-30T03:22:38;5.47;;;4.93;;
55617;SDS011;41492;49.804;9.952;2024-01-30T03:25:05;6.10;;;5.50;;
55617;SDS011;41492;49.804;9.952;2024-01-30T03:27:32;6.47;;;5.43;;
55617;SDS011;41492;49.804;9.952;2024-01-30T03:30:00;7.57;;;5.40;;
55617;SDS011;41492;49.804;9.952;2024-01-30T03:32:26;8.73;;;5.90;;
55617;SDS011;41492;49.804;9.952;2024-01-30T03:34:53;6.35;;;5.53;;
55617;SDS011;41492;49.804;9.952;2024-01-30T03:37:20;7.10;;;6.03;;
55617;SDS011;41492;49.804;9.952;2024-01-30T03:39:46;6.70;;;5.50;;
55617;SDS011;41492;49.804;9.952;2024-01-30T03:42:13;6.45;;;5.25;;
55617;SDS011;41492;49.804;9.952;2024-01-30T03:44:39;7.40;;;5.45;;
55617;SDS011;41492;49.804;9.952;2024-01-30T03:47:07;6.32;;;5.25;;
55617;SDS011;41492;49.804;9.952;2024-01-30T03:49:34;5.85;;;5.25;;
55617;SDS011;41492;49.804;9.952;2024-01-30T03:52:00;5.68;;;4.97;;
55617;SDS011;41492;49.804;9.952;2024-01-30T03:54:27;7.22;;;6.40;;
55617;SDS011;41492;49.804;9.952;2024-01-30T03:56:53;7.47;;;5.55;;
55617;SDS011;41492;49.804;9.952;2024-01-30T03:59:20;7.07;;;5.57;;
55617;SDS011;41492;49.804;9.952;2024-01-30T04:01:49;6.57;;;5.40;;
55617;SDS011;41492;49.804;9.952;2024-01-30T04:04:17;6.95;;;5.50;;
55617;SDS011;41492;49.804;9.952;2024-01-30T04:06:44;7.95;;;5.90;;
55617;SDS011;41492;49.804;9.952;2024-01-30T04:09:12;6.68;;;5.40;;
55617;SDS011;41492;49.804;9.952;2024-01-30T04:11:39;8.02;;;6.00;;
55617;SDS011;41492;49.804;9.952;2024-01-30T04:14:06;7.10;;;5.18;;
55617;SDS011;41492;49.804;9.952;2024-01-30T04:16:33;6.50;;;5.70;;
55617;SDS011;41492;49.804;9.952;2024-01-30T04:18:59;6.13;;;5.25;;
55617;SDS011;41492;49.804;9.952;2024-01-30T04:21:27;6.10;;;5.50;;
55617;SDS011;41492;49.804;9.952;2024-01-30T04:23:54;5.78;;;5.18;;
55617;SDS011;41492;49.804;9.952;2024-01-30T04:26:20;7.05;;;5.85;;
55617;SDS011;41492;49.804;9.952;2024-01-30T04:28:47;6.32;;;5.68;;
55617;SDS011;41492;49.804;9.952;2024-01-30T04:31:14;5.88;;;5.28;;
55617;SDS011;41492;49.804;9.952;2024-01-30T04:33:40;5.35;;;4.82;;
55617;SDS011;41492;49.804;9.952;2024-01-30T04:36:08;6.68;;;5.95;;
55617;SDS011;41492;49.804;9.952;2024-01-30T04:38:36;6.38;;;5.20;;
55617;SDS011;41492;49.804;9.952;2024-01-30T04:41:03;10.18;;;5.97;;
55617;SDS011;41492;49.804;9.952;2024-01-30T04:43:30;6.43;;;5.25;;
55617;SDS011;41492;49.804;9.952;2024-01-30T04:45:56;6.10;;;5.05;;
55617;SDS011;41492;49.804;9.952;2024-01-30T04:48:23;6.53;;;5.85;;
55617;SDS011;41492;49.804;9.952;2024-01-30T04:50:49;7.43;;;6.07;;
55617;SDS011;41492;49.804;9.952;2024-01-30T04:53:16;5.72;;;5.15;;
55617;SDS011;41492;49.804;9.952;2024-01-30T04:55:43;6.60;;;5.15;;
55617;SDS011;41492;49.804;9.952;2024-01-30T04:58:09;6.40;;;5.50;;
55617;SDS011;41492;49.804;9.952;2024-01-30T05:00:36;5.70;;;5.13;;
55617;SDS011;41492;49.804;9.952;2024-01-30T05:03:03;6.97;;;5.72;;
55617;SDS011;41492;49.804;9.952;2024-01-30T05:05:29;6.72;;;5.53;;
55617;SDS011;41492;49.804;9.952;2024-01-30T05:07:56;7.82;;;5.72;;
55617;SDS011;41492;49.804;9.952;2024-01-30T05:10:23;6.07;;;5.47;;
55617;SDS011;41492;49.804;9.952;2024-01-30T05:12:50;6.50;;;5.65;;
55617;SDS011;41492;49.804;9.952;2024-01-30T05:15:17;6.88;;;5.68;;
55617;SDS011;41492;49.804;9.952;2024-01-30T05:17:45;5.95;;;5.28;;
55617;SDS011;41492;49.804;9.952;2024-01-30T05:20:12;7.93;;;5.88;;
55617;SDS011;41492;49.804;9.952;2024-01-30T05:22:39;6.80;;;5.43;;
55617;SDS011;41492;49.804;9.952;2024-01-30T05:25:09;6.97;;;5.65;;
55617;SDS011;41492;49.804;9.952;2024-01-30T05:27:36;5.82;;;5.00;;
55617;SDS011;41492;49.804;9.952;2024-01-30T05:30:05;6.20;;;5.43;;
55617;SDS011;41492;49.804;9.952;2024-01-30T05:32:32;7.32;;;5.75;;
55617;SDS011;41492;49.804;9.952;2024-01-30T05:34:59;5.95;;;5.30;;
55617;SDS011;41492;49.804;9.952;2024-01-30T05:37:25;6.20;;;5.60;;
55617;SDS011;41492;49.804;9.952;2024-01-30T05:39:52;5.88;;;5.28;;
55617;SDS011;41492;49.804;9.952;2024-01-30T05:42:18;6.03;;;5.43;;
55617;SDS011;41492;49.804;9.952;2024-01-30T05:44:45;9.88;;;6.57;;
55617;SDS011;41492;49.804;9.952;2024-01-30T05:47:13;8.32;;;5.88;;
55617;SDS011;41492;49.804;9.952;2024-01-30T05:49:40;8.13;;;6.57;;
55617;SDS011;41492;49.804;9.952;2024-01-30T05:52:07;9.10;;;6.40;;
55617;SDS011;41492;49.804;9.952;2024-01-30T05:54:33;9.35;;;7.05;;
55617;SDS011;41492;49.804;9.952;2024-01-30T05:57:00;11.18;;;7.32;;
55617;SDS011;41492;49.804;9.952;2024-01-30T05:59:27;11.00;;;7.28;;
55617;SDS011;41492;49.804;9.952;2024-01-30T06:01:53;7.28;;;6.30;;
55617;SDS011;41492;49.804;9.952;2024-01-30T06:04:21;9.70;;;7.10;;
55617;SDS011;41492;49.804;9.952;2024-01-30T06:06:47;9.75;;;7.43;;
55617;SDS011;41492;49.804;9.952;2024-01-30T06:09:13;10.80;;;6.90;;
55617;SDS011;41492;49.804;9.952;2024-01-30T06:11:40;10.45;;;7.50;;
55617;SDS011;41492;49.804;9.952;2024-01-30T06:14:07;9.85;;;6.85;;
55617;SDS011;41492;49.804;9.952;2024-01-30T06:16:33;8.80;;;7.25;;
55617;SDS011;41492;49.804;9.952;2024-01-30T06:19:00;10.98;;;6.95;;
55617;SDS011;41492;49.804;9.952;2024-01-30T06:21:28;8.68;;;5.80;;
55617;SDS011;41492;49.804;9.952;2024-01-30T06:23:55;9.10;;;6.68;;
55617;SDS011;41492;49.804;9.952;2024-01-30T06:26:22;10.98;;;7.43;;
55617;SDS011;41492;49.804;9.952;2024-01-30T06:28:48;9.63;;;6.65;;
55617;SDS011;41492;49.804;9.952;2024-01-30T06:31:15;8.93;;;7.13;;
55617;SDS011;41492;49.804;9.952;2024-01-30T06:33:41;10.35;;;6.93;;
55617;SDS011;41492;49.804;9.952;2024-01-30T06:36:08;9.18;;;6.60;;
55617;SDS011;41492;49.804;9.952;2024-01-30T06:38:36;11.43;;;7.30;;
55617;SDS011;41492;49.804;9.952;2024-01-30T06:41:03;9.32;;;6.72;;
55617;SDS011;41492;49.804;9.952;2024-01-30T06:43:30;10.15;;;6.75;;
55617;SDS011;41492;49.804;9.952;2024-01-30T06:45:56;8.93;;;6.43;;
55617;SDS011;41492;49.804;9.952;2024-01-30T06:48:23;9.40;;;6.15;;
55617;SDS011;41492;49.804;9.952;2024-01-30T06:50:49;9.38;;;7.70;;
55617;SDS011;41492;49.804;9.952;2024-01-30T06:53:16;9.35;;;7.15;;
55617;SDS011;41492;49.804;9.952;2024-01-30T06:55:44;9.60;;;6.40;;
55617;SDS011;41492;49.804;9.952;2024-01-30T06:58:11;10.68;;;6.40;;
55617;SDS011;41492;49.804;9.952;2024-01-30T07:00:38;8.35;;;6.65;;
55617;SDS011;41492;49.804;9.952;2024-01-30T07:03:05;12.30;;;7.47;;
55617;SDS011;41492;49.804;9.952;2024-01-30T07:05:31;9.43;;;6.65;;
55617;SDS011;41492;49.804;9.952;2024-01-30T07:07:58;8.10;;;6.32;;
55617;SDS011;41492;49.804;9.952;2024-01-30T07:10:24;8.38;;;6.45;;
55617;SDS011;41492;49.804;9.952;2024-01-30T07:12:52;7.85;;;6.32;;
55617;SDS011;41492;49.804;9.952;2024-01-30T07:15:19;9.00;;;6.32;;
55617;SDS011;41492;49.804;9.952;2024-01-30T07:17:45;12.02;;;6.57;;
55617;SDS011;41492;49.804;9.952;2024-01-30T07:20:12;11.02;;;6.72;;
55617;SDS011;41492;49.804;9.952;2024-01-30T07:22:39;10.40;;;6.75;;
55617;SDS011;41492;49.804;9.952;2024-01-30T07:25:06;7.70;;;6.88;;
55617;SDS011;41492;49.804;9.952;2024-01-30T07:27:33;10.20;;;7.43;;
55617;SDS011;41492;49.804;9.952;2024-01-30T07:30:01;9.50;;;6.38;;
55617;SDS011;41492;49.804;9.952;2024-01-30T07:32:28;9.50;;;7.32;;
55617;SDS011;41492;49.804;9.952;2024-01-30T07:34:54;10.48;;;6.95;;
55617;SDS011;41492;49.804;9.952;2024-01-30T07:37:21;8.38;;;6.85;;
55617;SDS011;41492;49.804;9.952;2024-01-30T07:39:47;11.15;;;6.90;;
55617;SDS011;41492;49.804;9.952;2024-01-30T07:42:14;9.15;;;6.68;;
55617;SDS011;41492;49.804;9.952;2024-01-30T07:44:41;9.73;;;6.97;;
55617;SDS011;41492;49.804;9.952;2024-01-30T07:47:09;8.52;;;6.85;;
55617;SDS011;41492;49.804;9.952;2024-01-30T07:49:35;8.68;;;6.72;;
55617;SDS011;41492;49.804;9.952;2024-01-30T07:52:03;9.15;;;6.78;;
55617;SDS011;41492;49.804;9.952;2024-01-30T07:54:30;8.07;;;6.20;;
55617;SDS011;41492;49.804;9.952;2024-01-30T07:56:58;10.13;;;6.78;;
55617;SDS011;41492;49.804;9.952;2024-01-30T07:59:25;9.90;;;7.22;;
55617;SDS011;41492;49.804;9.952;2024-01-30T08:01:51;9.00;;;6.10;;
55617;SDS011;41492;49.804;9.952;2024-01-30T08:04:19;10.25;;;6.88;;
55617;SDS011;41492;49.804;9.952;2024-01-30T08:06:46;8.65;;;6.45;;
55617;SDS011;41492;49.804;9.952;2024-01-30T08:09:12;7.72;;;6.40;;
55617;SDS011;41492;49.804;9.952;2024-01-30T08:11:40;8.38;;;6.80;;
55617;SDS011;41492;49.804;9.952;2024-01-30T08:14:06;9.77;;;7.10;;
55617;SDS011;41492;49.804;9.952;2024-01-30T08:16:33;7.97;;;7.18;;
55617;SDS011;41492;49.804;9.952;2024-01-30T08:19:00;10.43;;;6.70;;
55617;SDS011;41492;49.804;9.952;2024-01-30T08:21:27;9.15;;;6.55;;
55617;SDS011;41492;49.804;9.952;2024-01-30T08:23:54;7.03;;;6.00;;
55617;SDS011;41492;49.804;9.952;2024-01-30T08:26:21;8.05;;;6.47;;
55617;SDS011;41492;49.804;9.952;2024-01-30T08:28:47;9.75;;;6.88;;
55617;SDS011;41492;49.804;9.952;2024-01-30T08:31:15;8.35;;;6.57;;
55617;SDS011;41492;49.804;9.952;2024-01-30T08:33:42;8.10;;;6.57;;
55617;SDS011;41492;49.804;9.952;2024-01-30T08:36:08;10.35;;;6.38;;
55617;SDS011;41492;49.804;9.952;2024-01-30T08:38:36;8.40;;;6.45;;
55617;SDS011;41492;49.804;9.952;2024-01-30T08:41:03;10.00;;;6.95;;
55617;SDS011;41492;49.804;9.952;2024-01-30T08:43:30;9.55;;;7.20;;
55617;SDS011;41492;49.804;9.952;2024-01-30T08:45:58;8.65;;;6.85;;
55617;SDS011;41492;49.804;9.952;2024-01-30T08:48:25;9.48;;;7.18;;
55617;SDS011;41492;49.804;9.952;2024-01-30T08:50:51;7.90;;;6.90;;
55617;SDS011;41492;49.804;9.952;2024-01-30T08:53:18;9.30;;;6.78;;
55617;SDS011;41492;49.804;9.952;2024-01-30T08:55:46;8.05;;;5.95;;
55617;SDS011;41492;49.804;9.952;2024-01-30T08:58:12;7.97;;;7.00;;
55617;SDS011;41492;49.804;9.952;2024-01-30T09:00:40;7.85;;;6.95;;
55617;SDS011;41492;49.804;9.952;2024-01-30T09:03:07;9.48;;;7.20;;
55617;SDS011;41492;49.804;9.952;2024-01-30T09:05:33;8.80;;;6.30;;
55617;SDS011;41492;49.804;9.952;2024-01-30T09:08:00;7.53;;;6.75;;
55617;SDS011;41492;49.804;9.952;2024-01-30T09:10:26;7.80;;;6.97;;
55617;SDS011;41492;49.804;9.952;2024-01-30T09:12:54;8.65;;;7.13;;
55617;SDS011;41492;49.804;9.952;2024-01-30T09:15:21;8.27;;;6.55;;
55617;SDS011;41492;49.804;9.952;2024-01-30T09:17:48;8.43;;;7.00;;
55617;SDS011;41492;49.804;9.952;2024-01-30T09:20:14;9.55;;;6.68;;
55617;SDS011;41492;49.804;9.952;2024-01-30T09:22:41;9.20;;;7.22;;
55617;SDS011;41492;49.804;9.952;2024-01-30T09:25:08;9.05;;;6.75;;
55617;SDS011;41492;49.804;9.952;2024-01-30T09:27:35;10.48;;;6.57;;
55617;SDS011;41492;49.804;9.952;2024-01-30T09:30:03;8.85;;;6.88;;
55617;SDS011;41492;49.804;9.952;2024-01-30T09:32:30;9.35;;;7.40;;
55617;SDS011;41492;49.804;9.952;2024-01-30T09:34:56;8.48;;;6.35;;
55617;SDS011;41492;49.804;9.952;2024-01-30T09:37:23;7.80;;;6.93;;
55617;SDS011;41492;49.804;9.952;2024-01-30T09:39:49;9.00;;;6.30;;
55617;SDS011;41492;49.804;9.952;2024-01-30T09:42:17;9.18;;;7.38;;
55617;SDS011;41492;49.804;9.952;2024-01-30T09:44:49;8.77;;;6.80;;
55617;SDS011;41492;49.804;9.952;2024-01-30T09:47:19;10.60;;;6.88;;
55617;SDS011;41492;49.804;9.952;2024-01-30T09:49:45;9.20;;;6.47;;
55617;SDS011;41492;49.804;9.952;2024-01-30T09:52:12;10.40;;;6.90;;
55617;SDS011;41492;49.804;9.952;2024-01-30T09:54:38;7.63;;;6.85;;
55617;SDS011;41492;49.804;9.952;2024-01-30T09:57:06;7.35;;;6.28;;
55617;SDS011;41492;49.804;9.952;2024-01-30T09:59:33;8.95;;;7.50;;
55617;SDS011;41492;49.804;9.952;2024-01-30T10:02:00;9.02;;;7.15;;
55617;SDS011;41492;49.804;9.952;2024-01-30T10:04:30;9.80;;;7.07;;
55617;SDS011;41492;49.804;9.952;2024-01-30T10:06:57;10.43;;;7.18;;
55617;SDS011;41492;49.804;9.952;2024-01-30T10:09:24;7.93;;;7.10;;
55617;SDS011;41492;49.804;9.952;2024-01-30T10:11:51;9.48;;;7.00;;
55617;SDS011;41492;49.804;9.952;2024-01-30T10:14:17;7.85;;;6.82;;
55617;SDS011;41492;49.804;9.952;2024-01-30T10:16:45;10.00;;;7.72;;
55617;SDS011;41492;49.804;9.952;2024-01-30T10:19:12;9.77;;;6.90;;
55617;SDS011;41492;49.804;9.952;2024-01-30T10:21:40;11.73;;;7.50;;
55617;SDS011;41492;49.804;9.952;2024-01-30T10:24:07;9.98;;;6.43;;
55617;SDS011;41492;49.804;9.952;2024-01-30T10:26:33;9.02;;;7.18;;
55617;SDS011;41492;49.804;9.952;2024-01-30T10:29:02;8.82;;;7.00;;
55617;SDS011;41492;49.804;9.952;2024-01-30T10:31:29;10.20;;;7.13;;
55617;SDS011;41492;49.804;9.952;2024-01-30T10:33:55;7.15;;;6.45;;
55617;SDS011;41492;49.804;9.952;2024-01-30T10:36:23;9.85;;;6.95;;
55617;SDS011;41492;49.804;9.952;2024-01-30T10:38:54;10.20;;;6.85;;
55617;SDS011;41492;49.804;9.952;2024-01-30T10:41:23;8.90;;;6.65;;
55617;SDS011;41492;49.804;9.952;2024-01-30T10:43:55;9.55;;;7.38;;
55617;SDS011;41492;49.804;9.952;2024-01-30T10:46:27;8.45;;;6.72;;
55617;SDS011;41492;49.804;9.952;2024-01-30T10:48:57;9.00;;;6.18;;
55617;SDS011;41492;49.804;9.952;2024-01-30T10:51:24;10.45;;;7.97;;
55617;SDS011;41492;49.804;9.952;2024-01-30T10:53:53;8.15;;;6.95;;
55617;SDS011;41492;49.804;9.952;2024-01-30T10:56:22;7.25;;;6.30;;
55617;SDS011;41492;49.804;9.952;2024-01-30T10:58:49;7.53;;;6.72;;
55617;SDS011;41492;49.804;9.952;2024-01-30T11:01:17;8.55;;;6.68;;
55617;SDS011;41492;49.804;9.952;2024-01-30T11:03:44;8.07;;;7.03;;
55617;SDS011;41492;49.804;9.952;2024-01-30T11:06:11;8.13;;;6.95;;
55617;SDS011;41492;49.804;9.952;2024-01-30T11:08:39;10.95;;;7.47;;
55617;SDS011;41492;49.804;9.952;2024-01-30T11:11:09;9.23;;;7.15;;
55617;SDS011;41492;49.804;9.952;2024-01-30T11:13:36;8.25;;;6.43;;
55617;SDS011;41492;49.804;9.952;2024-01-30T11:16:03;8.50;;;7.32;;
55617;SDS011;41492;49.804;9.952;2024-01-30T11:18:31;8.10;;;6.70;;
55617;SDS011;41492;49.804;9.952;2024-01-30T11:20:59;10.05;;;7.45;;
55617;SDS011;41492;49.804;9.952;2024-01-30T11:23:27;7.95;;;6.47;;
55617;SDS011;41492;49.804;9.952;2024-01-30T11:25:54;7.72;;;6.60;;
55617;SDS011;41492;49.804;9.952;2024-01-30T11:28:23;8.50;;;6.95;;
55617;SDS011;41492;49.804;9.952;2024-01-30T11:30:50;11.65;;;7.78;;
55617;SDS011;41492;49.804;9.952;2024-01-30T11:33:27;6.68;;;6.05;;
55617;SDS011;41492;49.804;9.952;2024-01-30T11:35:56;8.20;;;6.68;;
55617;SDS011;41492;49.804;9.952;2024-01-30T11:38:23;7.35;;;6.50;;
55617;SDS011;41492;49.804;9.952;2024-01-30T11:40:52;10.10;;;6.63;;
55617;SDS011;41492;49.804;9.952;2024-01-30T11:43:19;12.43;;;7.00;;
55617;SDS011;41492;49.804;9.952;2024-01-30T11:45:47;9.98;;;7.20;;
55617;SDS011;41492;49.804;9.952;2024-01-30T11:48:14;7.30;;;6.47;;
55617;SDS011;41492;49.804;9.952;2024-01-30T11:50:40;9.00;;;7.32;;
55617;SDS011;41492;49.804;9.952;2024-01-30T11:53:07;9.35;;;6.55;;
55617;SDS011;41492;49.804;9.952;2024-01-30T11:55:34;8.68;;;6.38;;
55617;SDS011;41492;49.804;9.952;2024-01-30T11:58:02;9.10;;;7.00;;
55617;SDS011;41492;49.804;9.952;2024-01-30T12:00:29;8.38;;;7.00;;
55617;SDS011;41492;49.804;9.952;2024-01-30T12:02:59;6.97;;;6.22;;
55617;SDS011;41492;49.804;9.952;2024-01-30T12:05:27;7.80;;;6.82;;
55617;SDS011;41492;49.804;9.952;2024-01-30T12:07:54;11.38;;;7.30;;
55617;SDS011;41492;49.804;9.952;2024-01-30T12:10:23;7.97;;;6.65;;
55617;SDS011;41492;49.804;9.952;2024-01-30T12:12:50;8.75;;;6.63;;
55617;SDS011;41492;49.804;9.952;2024-01-30T12:15:18;9.43;;;7.13;;
55617;SDS011;41492;49.804;9.952;2024-01-30T12:17:46;7.57;;;6.63;;
55617;SDS011;41492;49.804;9.952;2024-01-30T12:20:15;8.18;;;6.53;;
55617;SDS011;41492;49.804;9.952;2024-01-30T12:22:44;8.63;;;6.85;;
55617;SDS011;41492;49.804;9.952;2024-01-30T12:25:11;7.47;;;6.05;;
55617;SDS011;41492;49.804;9.952;2024-01-30T12:27:39;6.30;;;5.70;;
55617;SDS011;41492;49.804;9.952;2024-01-30T12:30:06;10.80;;;7.18;;
55617;SDS011;41492;49.804;9.952;2024-01-30T12:32:34;7.40;;;6.55;;
55617;SDS011;41492;49.804;9.952;2024-01-30T12:35:01;8.27;;;7.13;;
55617;SDS011;41492;49.804;9.952;2024-01-30T12:37:29;8.85;;;6.78;;
55617;SDS011;41492;49.804;9.952;2024-01-30T12:39:56;9.82;;;7.40;;
55617;SDS011;41492;49.804;9.952;2024-01-30T12:42:23;7.43;;;6.63;;
55617;SDS011;41492;49.804;9.952;2024-01-30T12:44:49;8.75;;;6.78;;
55617;SDS011;41492;49.804;9.952;2024-01-30T12:47:16;7.97;;;6.68;;
55617;SDS011;41492;49.804;9.952;2024-01-30T12:49:43;9.90;;;6.30;;
55617;SDS011;41492;49.804;9.952;2024-01-30T12:52:10;8.15;;;6.55;;
55617;SDS011;41492;49.804;9.952;2024-01-30T12:54:38;11.52;;;7.05;;
55617;SDS011;41492;49.804;9.952;2024-01-30T12:57:04;8.05;;;6.88;;
55617;SDS011;41492;49.804;9.952;2024-01-30T12:59:31;8.68;;;6.60;;
55617;SDS011;41492;49.804;9.952;2024-01-30T13:02:00;6.78;;;5.85;;
55617;SDS011;41492;49.804;9.952;2024-01-30T13:04:26;8.75;;;6.97;;
55617;SDS011;41492;49.804;9.952;2024-01-30T13:06:53;9.15;;;6.90;;
55617;SDS011;41492;49.804;9.952;2024-01-30T13:09:20;7.38;;;6.35;;
55617;SDS011;41492;49.804;9.952;2024-01-30T13:11:48;9.20;;;7.20;;
55617;SDS011;41492;49.804;9.952;2024-01-30T13:14:16;6.80;;;6.10;;
55617;SDS011;41492;49.804;9.952;2024-01-30T13:16:42;8.95;;;7.22;;
55617;SDS011;41492;49.804;9.952;2024-01-30T13:19:09;8.05;;;6.70;;
55617;SDS011;41492;49.804;9.952;2024-01-30T13:21:35;10.23;;;6.88;;
55617;SDS011;41492;49.804;9.952;2024-01-30T13:24:02;7.72;;;6.70;;
55617;SDS011;41492;49.804;9.952;2024-01-30T13:26:31;9.57;;;7.47;;
55617;SDS011;41492;49.804;9.952;2024-01-30T13:28:59;9.48;;;7.13;;
55617;SDS011;41492;49.804;9.952;2024-01-30T13:31:25;6.63;;;5.93;;
55617;SDS011;41492;49.804;9.952;2024-01-30T13:33:53;9.45;;;6.95;;
55617;SDS011;41492;49.804;9.952;2024-01-30T13:36:19;7.55;;;6.68;;
55617;SDS011;41492;49.804;9.952;2024-01-30T13:38:46;7.63;;;6.55;;
55617;SDS011;41492;49.804;9.952;2024-01-30T13:41:12;7.35;;;6.45;;
55617;SDS011;41492;49.804;9.952;2024-01-30T13:43:39;6.95;;;6.25;;
55617;SDS011;41492;49.804;9.952;2024-01-30T13:46:07;8.73;;;6.68;;
55617;SDS011;41492;49.804;9.952;2024-01-30T13:48:33;8.40;;;6.47;;
55617;SDS011;41492;49.804;9.952;2024-01-30T13:51:00;6.78;;;6.07;;
55617;SDS011;41492;49.804;9.952;2024-01-30T13:53:27;7.93;;;6.93;;
55617;SDS011;41492;49.804;9.952;2024-01-30T13:55:53;8.38;;;6.50;;
55617;SDS011;41492;49.804;9.952;2024-01-30T13:58:20;7.68;;;6.88;;
55617;SDS011;41492;49.804;9.952;2024-01-30T14:00:46;8.45;;;6.82;;
55617;SDS011;41492;49.804;9.952;2024-01-30T14:03:15;7.72;;;6.60;;
55617;SDS011;41492;49.804;9.952;2024-01-30T14:05:42;6.95;;;6.30;;
55617;SDS011;41492;49.804;9.952;2024-01-30T14:08:09;8.23;;;6.53;;
55617;SDS011;41492;49.804;9.952;2024-01-30T14:10:35;8.52;;;6.90;;
55617;SDS011;41492;49.804;9.952;2024-01-30T14:13:02;9.80;;;7.13;;
55617;SDS011;41492;49.804;9.952;2024-01-30T14:15:29;9.27;;;6.25;;
55617;SDS011;41492;49.804;9.952;2024-01-30T14:17:55;7.40;;;6.40;;
55617;SDS011;41492;49.804;9.952;2024-01-30T14:20:23;9.00;;;7.10;;
55617;SDS011;41492;49.804;9.952;2024-01-30T14:22:50;9.23;;;7.10;;
55617;SDS011;41492;49.804;9.952;2024-01-30T14:25:18;8.45;;;6.20;;
55617;SDS011;41492;49.804;9.952;2024-01-30T14:27:45;8.65;;;6.93;;
55617;SDS011;41492;49.804;9.952;2024-01-30T14:30:11;8.50;;;7.60;;
55617;SDS011;41492;49.804;9.952;2024-01-30T14:32:38;7.32;;;6.63;;
55617;SDS011;41492;49.804;9.952;2024-01-30T14:35:06;11.48;;;7.28;;
55617;SDS011;41492;49.804;9.952;2024-01-30T14:37:35;9.55;;;7.00;;
55617;SDS011;41492;49.804;9.952;2024-01-30T14:40:02;8.32;;;6.57;;
55617;SDS011;41492;49.804;9.952;2024-01-30T14:42:32;8.98;;;6.50;;
55617;SDS011;41492;49.804;9.952;2024-01-30T14:44:58;6.95;;;6.20;;